Time;durP1;ratioP1;P1;durP2;ratioP2;P2;SDS_P1;SDS_P2;PMS_P1;PMS_P2;Temp;Humidity;BMP_temperature;BMP_pressure;BME280_temperature;BME280_humidity;BME280_pressure;Samples;Min_cycle;Max_cycle;Signal;HPM_P1;HPM_P2
2021/04/10 00:01:02;;;;;;;14.38;10.9;;;10.4;99.9;;;;;;;;;
2021/04/10 00:02:02;;;;;;;12.43;10.02;;;10.5;99.9;;;;;;;;;
2021/04/10 00:03:02;;;;;;;12.23;10.88;;;10.6;99.9;;;;;;;;;
2021/04/10 00:03:16;;;;;;;12.23;10.88;;;10.6;99.9;;;;;;;;;
2021/04/10 00:04:02;;;;;;;12.23;11.02;;;10.6;99.9;;;;;;;;;
2021/04/10 00:04:12;;;;;;;12.23;11.02;;;10.6;99.9;;;;;;;;;
2021/04/10 00:05:02;;;;;;;14.05;10.48;;;10.6;99.9;;;;;;;;;
2021/04/10 00:05:14;;;;;;;14.05;10.48;;;10.6;99.9;;;;;;;;;
2021/04/10 00:05:29;;;;;;;12.93;10.5;;;10.7;99.9;;;;;;;;;
2021/04/10 00:06:02;;;;;;;12.93;10.5;;;10.7;99.9;;;;;;;;;
2021/04/10 00:06:16;;;;;;;12.93;10.5;;;10.7;99.9;;;;;;;;;
2021/04/10 00:06:26;;;;;;;10.6;9.6;;;10.7;99.9;;;;;;;;;
2021/04/10 00:07:02;;;;;;;10.6;9.6;;;10.7;99.9;;;;;;;;;
2021/04/10 00:07:17;;;;;;;10.6;9.6;;;10.7;99.9;;;;;;;;;
2021/04/10 00:07:27;;;;;;;13.13;10.63;;;10.6;99.9;;;;;;;;;
2021/04/10 00:07:42;;;;;;;13.13;10.63;;;10.6;99.9;;;;;;;;;
2021/04/10 00:08:02;;;;;;;13.13;10.63;;;10.6;99.9;;;;;;;;;
2021/04/10 00:08:13;;;;;;;13.13;10.63;;;10.6;99.9;;;;;;;;;
2021/04/10 00:08:28;;;;;;;13.88;10.3;;;10.6;99.9;;;;;;;;;
2021/04/10 00:08:39;;;;;;;13.88;10.3;;;10.6;99.9;;;;;;;;;
2021/04/10 00:09:02;;;;;;;13.88;10.3;;;10.6;99.9;;;;;;;;;
2021/04/10 00:09:15;;;;;;;13.88;10.3;;;10.6;99.9;;;;;;;;;
2021/04/10 00:09:30;;;;;;;14.5;10.55;;;10.6;99.9;;;;;;;;;
2021/04/10 00:09:40;;;;;;;14.5;10.55;;;10.6;99.9;;;;;;;;;
2021/04/10 00:09:56;;;;;;;14.5;10.55;;;10.6;99.9;;;;;;;;;
2021/04/10 00:10:02;;;;;;;14.5;10.55;;;10.6;99.9;;;;;;;;;
2021/04/10 00:10:17;;;;;;;14.5;10.55;;;10.6;99.9;;;;;;;;;
2021/04/10 00:10:26;;;;;;;11.98;10.5;;;10.5;99.9;;;;;;;;;
2021/04/10 00:10:42;;;;;;;11.98;10.5;;;10.5;99.9;;;;;;;;;
2021/04/10 00:10:52;;;;;;;11.98;10.5;;;10.5;99.9;;;;;;;;;
2021/04/10 00:11:02;;;;;;;11.98;10.5;;;10.5;99.9;;;;;;;;;
2021/04/10 00:11:17;;;;;;;11.98;10.5;;;10.5;99.9;;;;;;;;;
2021/04/10 00:11:28;;;;;;;12.75;10.35;;;10.4;99.9;;;;;;;;;
2021/04/10 00:11:43;;;;;;;12.75;10.35;;;10.4;99.9;;;;;;;;;
2021/04/10 00:11:53;;;;;;;12.75;10.35;;;10.4;99.9;;;;;;;;;
2021/04/10 00:12:02;;;;;;;12.75;10.35;;;10.4;99.9;;;;;;;;;
2021/04/10 00:12:09;;;;;;;12.75;10.35;;;10.4;99.9;;;;;;;;;
2021/04/10 00:12:14;;;;;;;12.75;10.35;;;10.4;99.9;;;;;;;;;
2021/04/10 00:12:29;;;;;;;12.95;11.35;;;10.3;99.9;;;;;;;;;
2021/04/10 00:12:39;;;;;;;12.95;11.35;;;10.3;99.9;;;;;;;;;
2021/04/10 00:12:55;;;;;;;12.95;11.35;;;10.3;99.9;;;;;;;;;
2021/04/10 00:13:02;;;;;;;12.95;11.35;;;10.3;99.9;;;;;;;;;
2021/04/10 00:13:05;;;;;;;12.95;11.35;;;10.3;99.9;;;;;;;;;
2021/04/10 00:13:15;;;;;;;12.95;11.35;;;10.3;99.9;;;;;;;;;
2021/04/10 00:13:31;;;;;;;11.9;10.4;;;10.4;99.9;;;;;;;;;
2021/04/10 00:13:41;;;;;;;11.9;10.4;;;10.4;99.9;;;;;;;;;
2021/04/10 00:13:56;;;;;;;11.9;10.4;;;10.4;99.9;;;;;;;;;
2021/04/10 00:14:02;;;;;;;11.9;10.4;;;10.4;99.9;;;;;;;;;
2021/04/10 00:14:06;;;;;;;11.9;10.4;;;10.4;99.9;;;;;;;;;
2021/04/10 00:14:17;;;;;;;11.9;10.4;;;10.4;99.9;;;;;;;;;
2021/04/10 00:14:27;;;;;;;12.4;10.38;;;10.5;99.9;;;;;;;;;
2021/04/10 00:14:42;;;;;;;12.4;10.38;;;10.5;99.9;;;;;;;;;
2021/04/10 00:14:53;;;;;;;12.4;10.38;;;10.5;99.9;;;;;;;;;
2021/04/10 00:15:01;;;;;;;12.4;10.38;;;10.5;99.9;;;;;;;;;
2021/04/10 00:15:08;;;;;;;12.4;10.38;;;10.5;99.9;;;;;;;;;
2021/04/10 00:15:13;;;;;;;12.4;10.38;;;10.5;99.9;;;;;;;;;
2021/04/10 00:15:29;;;;;;;13.2;10.55;;;10.6;99.9;;;;;;;;;
2021/04/10 00:15:44;;;;;;;13.2;10.55;;;10.6;99.9;;;;;;;;;
2021/04/10 00:15:54;;;;;;;13.2;10.55;;;10.6;99.9;;;;;;;;;
2021/04/10 00:16:02;;;;;;;13.2;10.55;;;10.6;99.9;;;;;;;;;
2021/04/10 00:16:09;;;;;;;13.2;10.55;;;10.6;99.9;;;;;;;;;
2021/04/10 00:16:14;;;;;;;13.2;10.55;;;10.6;99.9;;;;;;;;;
2021/04/10 00:16:30;;;;;;;14.07;10.77;;;10.6;99.9;;;;;;;;;
2021/04/10 00:16:40;;;;;;;14.07;10.77;;;10.6;99.9;;;;;;;;;
2021/04/10 00:16:55;;;;;;;14.07;10.77;;;10.6;99.9;;;;;;;;;
2021/04/10 00:17:02;;;;;;;14.07;10.77;;;10.6;99.9;;;;;;;;;
2021/04/10 00:17:06;;;;;;;14.07;10.77;;;10.6;99.9;;;;;;;;;
2021/04/10 00:17:16;;;;;;;14.07;10.77;;;10.6;99.9;;;;;;;;;
2021/04/10 00:17:26;;;;;;;12.1;10.5;;;10.6;99.9;;;;;;;;;
2021/04/10 00:17:41;;;;;;;12.1;10.5;;;10.6;99.9;;;;;;;;;
2021/04/10 00:17:57;;;;;;;12.1;10.5;;;10.6;99.9;;;;;;;;;
2021/04/10 00:18:02;;;;;;;12.1;10.5;;;10.6;99.9;;;;;;;;;
2021/04/10 00:18:07;;;;;;;12.1;10.5;;;10.6;99.9;;;;;;;;;
2021/04/10 00:18:12;;;;;;;12.1;10.5;;;10.6;99.9;;;;;;;;;
2021/04/10 00:18:28;;;;;;;11.6;10.27;;;10.7;99.9;;;;;;;;;
2021/04/10 00:18:43;;;;;;;11.6;10.27;;;10.7;99.9;;;;;;;;;
2021/04/10 00:18:53;;;;;;;11.6;10.27;;;10.7;99.9;;;;;;;;;
2021/04/10 00:19:02;;;;;;;11.6;10.27;;;10.7;99.9;;;;;;;;;
2021/04/10 00:19:09;;;;;;;11.6;10.27;;;10.7;99.9;;;;;;;;;
2021/04/10 00:19:14;;;;;;;11.6;10.27;;;10.7;99.9;;;;;;;;;
2021/04/10 00:19:29;;;;;;;12.68;10.65;;;10.6;99.9;;;;;;;;;
2021/04/10 00:19:39;;;;;;;12.68;10.65;;;10.6;99.9;;;;;;;;;
2021/04/10 00:19:55;;;;;;;12.68;10.65;;;10.6;99.9;;;;;;;;;
2021/04/10 00:20:01;;;;;;;12.68;10.65;;;10.6;99.9;;;;;;;;;
2021/04/10 00:20:10;;;;;;;12.68;10.65;;;10.6;99.9;;;;;;;;;
2021/04/10 00:20:15;;;;;;;12.68;10.65;;;10.6;99.9;;;;;;;;;
2021/04/10 00:20:26;;;;;;;13.2;10.9;;;10.4;99.9;;;;;;;;;
2021/04/10 00:20:41;;;;;;;13.2;10.9;;;10.4;99.9;;;;;;;;;
2021/04/10 00:20:56;;;;;;;13.2;10.9;;;10.4;99.9;;;;;;;;;
2021/04/10 00:21:02;;;;;;;13.2;10.9;;;10.4;99.9;;;;;;;;;
2021/04/10 00:21:06;;;;;;;13.2;10.9;;;10.4;99.9;;;;;;;;;
2021/04/10 00:21:17;;;;;;;13.2;10.9;;;10.4;99.9;;;;;;;;;
2021/04/10 00:21:27;;;;;;;11.77;10.55;;;10.3;99.9;;;;;;;;;
2021/04/10 00:21:42;;;;;;;11.77;10.55;;;10.3;99.9;;;;;;;;;
2021/04/10 00:21:52;;;;;;;11.77;10.55;;;10.3;99.9;;;;;;;;;
2021/04/10 00:22:02;;;;;;;11.77;10.55;;;10.3;99.9;;;;;;;;;
2021/04/10 00:22:08;;;;;;;11.77;10.55;;;10.3;99.9;;;;;;;;;
2021/04/10 00:22:18;;;;;;;11.77;10.55;;;10.3;99.9;;;;;;;;;
2021/04/10 00:22:28;;;;;;;14.98;11.07;;;10.3;99.9;;;;;;;;;
2021/04/10 00:22:38;;;;;;;14.98;11.07;;;10.3;99.9;;;;;;;;;
2021/04/10 00:22:54;;;;;;;14.98;11.07;;;10.3;99.9;;;;;;;;;
2021/04/10 00:23:02;;;;;;;14.98;11.07;;;10.3;99.9;;;;;;;;;
2021/04/10 00:23:09;;;;;;;14.98;11.07;;;10.3;99.9;;;;;;;;;
2021/04/10 00:23:14;;;;;;;14.98;11.07;;;10.3;99.9;;;;;;;;;
2021/04/10 00:23:30;;;;;;;14.23;10.43;;;10.3;99.9;;;;;;;;;
2021/04/10 00:23:43;;;;;;;14.23;10.43;;;10.3;99.9;;;;;;;;;
2021/04/10 00:23:55;;;;;;;14.23;10.43;;;10.3;99.9;;;;;;;;;
2021/04/10 00:24:02;;;;;;;14.23;10.43;;;10.3;99.9;;;;;;;;;
2021/04/10 00:24:05;;;;;;;14.23;10.43;;;10.3;99.9;;;;;;;;;
2021/04/10 00:24:16;;;;;;;14.23;10.43;;;10.3;99.9;;;;;;;;;
2021/04/10 00:24:31;;;;;;;12.5;11.2;;;10.3;99.9;;;;;;;;;
2021/04/10 00:24:41;;;;;;;12.5;11.2;;;10.3;99.9;;;;;;;;;
2021/04/10 00:24:52;;;;;;;12.5;11.2;;;10.3;99.9;;;;;;;;;
2021/04/10 00:25:01;;;;;;;12.5;11.2;;;10.3;99.9;;;;;;;;;
2021/04/10 00:25:07;;;;;;;12.5;11.2;;;10.3;99.9;;;;;;;;;
2021/04/10 00:25:12;;;;;;;12.5;11.2;;;10.3;99.9;;;;;;;;;
2021/04/10 00:25:27;;;;;;;15.27;11.25;;;10.3;99.9;;;;;;;;;
2021/04/10 00:25:43;;;;;;;15.27;11.25;;;10.3;99.9;;;;;;;;;
2021/04/10 00:25:53;;;;;;;15.27;11.25;;;10.3;99.9;;;;;;;;;
2021/04/10 00:26:02;;;;;;;15.27;11.25;;;10.3;99.9;;;;;;;;;
2021/04/10 00:26:08;;;;;;;15.27;11.25;;;10.3;99.9;;;;;;;;;
2021/04/10 00:26:14;;;;;;;15.27;11.25;;;10.3;99.9;;;;;;;;;
2021/04/10 00:26:29;;;;;;;13.93;10.7;;;10.3;99.9;;;;;;;;;
2021/04/10 00:26:44;;;;;;;13.93;10.7;;;10.3;99.9;;;;;;;;;
2021/04/10 00:26:54;;;;;;;13.93;10.7;;;10.3;99.9;;;;;;;;;
2021/04/10 00:27:02;;;;;;;13.93;10.7;;;10.3;99.9;;;;;;;;;
2021/04/10 00:27:05;;;;;;;13.93;10.7;;;10.3;99.9;;;;;;;;;
2021/04/10 00:27:15;;;;;;;13.93;10.7;;;10.3;99.9;;;;;;;;;
2021/04/10 00:27:25;;;;;;;13.93;10.7;;;10.3;99.9;;;;;;;;;
2021/04/10 00:27:40;;;;;;;12.82;11.4;;;10.3;99.9;;;;;;;;;
2021/04/10 00:27:56;;;;;;;12.82;11.4;;;10.3;99.9;;;;;;;;;
2021/04/10 00:28:02;;;;;;;12.82;11.4;;;10.3;99.9;;;;;;;;;
2021/04/10 00:28:06;;;;;;;12.82;11.4;;;10.3;99.9;;;;;;;;;
2021/04/10 00:28:16;;;;;;;12.82;11.4;;;10.3;99.9;;;;;;;;;
2021/04/10 00:28:27;;;;;;;12.82;11.4;;;10.3;99.9;;;;;;;;;
2021/04/10 00:28:42;;;;;;;14.23;11.03;;;10.3;99.9;;;;;;;;;
2021/04/10 00:28:57;;;;;;;14.23;11.03;;;10.3;99.9;;;;;;;;;
2021/04/10 00:29:02;;;;;;;14.23;11.03;;;10.3;99.9;;;;;;;;;
2021/04/10 00:29:08;;;;;;;14.23;11.03;;;10.3;99.9;;;;;;;;;
2021/04/10 00:29:13;;;;;;;14.23;11.03;;;10.3;99.9;;;;;;;;;
2021/04/10 00:29:28;;;;;;;12.3;11.1;;;10.3;99.9;;;;;;;;;
2021/04/10 00:29:38;;;;;;;12.3;11.1;;;10.3;99.9;;;;;;;;;
2021/04/10 00:29:54;;;;;;;12.3;11.1;;;10.3;99.9;;;;;;;;;
2021/04/10 00:30:01;;;;;;;12.3;11.1;;;10.3;99.9;;;;;;;;;
2021/04/10 00:30:09;;;;;;;12.3;11.1;;;10.3;99.9;;;;;;;;;
2021/04/10 00:30:14;;;;;;;12.3;11.1;;;10.3;99.9;;;;;;;;;
2021/04/10 00:30:29;;;;;;;16.9;10.93;;;10.3;99.9;;;;;;;;;
2021/04/10 00:30:40;;;;;;;16.9;10.93;;;10.3;99.9;;;;;;;;;
2021/04/10 00:31:06;;;;;;;16.9;10.93;;;10.3;99.9;;;;;;;;;
2021/04/10 00:31:06;;;;;;;16.9;10.93;;;10.3;99.9;;;;;;;;;
2021/04/10 00:31:11;;;;;;;16.9;10.93;;;10.3;99.9;;;;;;;;;
2021/04/10 00:31:16;;;;;;;16.9;10.93;;;10.3;99.9;;;;;;;;;
2021/04/10 00:31:26;;;;;;;16.9;10.93;;;10.3;99.9;;;;;;;;;
2021/04/10 00:31:41;;;;;;;12.83;11.4;;;10.2;99.9;;;;;;;;;
2021/04/10 00:31:51;;;;;;;12.83;11.4;;;10.2;99.9;;;;;;;;;
2021/04/10 00:32:02;;;;;;;12.83;11.4;;;10.2;99.9;;;;;;;;;
2021/04/10 00:32:07;;;;;;;12.83;11.4;;;10.2;99.9;;;;;;;;;
2021/04/10 00:32:12;;;;;;;12.83;11.4;;;10.2;99.9;;;;;;;;;
2021/04/10 00:32:27;;;;;;;12.83;11.4;;;10.2;99.9;;;;;;;;;
2021/04/10 00:32:43;;;;;;;12.6;11.07;;;10.3;99.9;;;;;;;;;
2021/04/10 00:32:53;;;;;;;12.6;11.07;;;10.3;99.9;;;;;;;;;
2021/04/10 00:33:02;;;;;;;12.6;11.07;;;10.3;99.9;;;;;;;;;
2021/04/10 00:33:18;;;;;;;12.6;11.07;;;10.3;99.9;;;;;;;;;
2021/04/10 00:33:18;;;;;;;12.6;11.07;;;10.3;99.9;;;;;;;;;
2021/04/10 00:33:29;;;;;;;12.6;11.07;;;10.3;99.9;;;;;;;;;
2021/04/10 00:33:39;;;;;;;15.15;11.5;;;10.3;99.9;;;;;;;;;
2021/04/10 00:33:54;;;;;;;15.15;11.5;;;10.3;99.9;;;;;;;;;
2021/04/10 00:34:02;;;;;;;15.15;11.5;;;10.3;99.9;;;;;;;;;
2021/04/10 00:34:04;;;;;;;15.15;11.5;;;10.3;99.9;;;;;;;;;
2021/04/10 00:34:15;;;;;;;15.15;11.5;;;10.3;99.9;;;;;;;;;
2021/04/10 00:34:25;;;;;;;15.15;11.5;;;10.3;99.9;;;;;;;;;
2021/04/10 00:34:40;;;;;;;12.95;11.63;;;10.3;99.9;;;;;;;;;
2021/04/10 00:34:56;;;;;;;12.95;11.63;;;10.3;99.9;;;;;;;;;
2021/04/10 00:35:01;;;;;;;12.95;11.63;;;10.3;99.9;;;;;;;;;
2021/04/10 00:35:06;;;;;;;12.95;11.63;;;10.3;99.9;;;;;;;;;
2021/04/10 00:35:16;;;;;;;12.95;11.63;;;10.3;99.9;;;;;;;;;
2021/04/10 00:35:32;;;;;;;11.7;10.48;;;10.2;99.9;;;;;;;;;
2021/04/10 00:35:42;;;;;;;11.7;10.48;;;10.2;99.9;;;;;;;;;
2021/04/10 00:35:52;;;;;;;11.7;10.48;;;10.2;99.9;;;;;;;;;
2021/04/10 00:36:02;;;;;;;11.7;10.48;;;10.2;99.9;;;;;;;;;
2021/04/10 00:36:08;;;;;;;11.7;10.48;;;10.2;99.9;;;;;;;;;
2021/04/10 00:36:12;;;;;;;11.7;10.48;;;10.2;99.9;;;;;;;;;
2021/04/10 00:36:28;;;;;;;11.7;10.48;;;10.2;99.9;;;;;;;;;
2021/04/10 00:36:38;;;;;;;13.73;12.05;;;10.3;99.9;;;;;;;;;
2021/04/10 00:36:53;;;;;;;13.73;12.05;;;10.3;99.9;;;;;;;;;
2021/04/10 00:37:02;;;;;;;13.73;12.05;;;10.3;99.9;;;;;;;;;
2021/04/10 00:37:09;;;;;;;13.73;12.05;;;10.3;99.9;;;;;;;;;
2021/04/10 00:37:14;;;;;;;13.73;12.05;;;10.3;99.9;;;;;;;;;
2021/04/10 00:37:29;;;;;;;13.73;12.05;;;10.3;99.9;;;;;;;;;
2021/04/10 00:37:45;;;;;;;12.13;10.93;;;10.3;99.9;;;;;;;;;
2021/04/10 00:37:55;;;;;;;12.13;10.93;;;10.3;99.9;;;;;;;;;
2021/04/10 00:38:02;;;;;;;12.13;10.93;;;10.3;99.9;;;;;;;;;
2021/04/10 00:38:05;;;;;;;12.13;10.93;;;10.3;99.9;;;;;;;;;
2021/04/10 00:38:15;;;;;;;12.13;10.93;;;10.3;99.9;;;;;;;;;
2021/04/10 00:38:26;;;;;;;12.13;10.93;;;10.3;99.9;;;;;;;;;
2021/04/10 00:38:41;;;;;;;14.45;11.82;;;10.3;99.9;;;;;;;;;
2021/04/10 00:38:51;;;;;;;14.45;11.82;;;10.3;99.9;;;;;;;;;
2021/04/10 00:39:02;;;;;;;14.45;11.82;;;10.3;99.9;;;;;;;;;
2021/04/10 00:39:07;;;;;;;14.45;11.82;;;10.3;99.9;;;;;;;;;
2021/04/10 00:39:17;;;;;;;14.45;11.82;;;10.3;99.9;;;;;;;;;
2021/04/10 00:39:27;;;;;;;14.45;11.82;;;10.3;99.9;;;;;;;;;
2021/04/10 00:39:42;;;;;;;14.3;10.85;;;10.3;99.9;;;;;;;;;
2021/04/10 00:39:58;;;;;;;14.3;10.85;;;10.3;99.9;;;;;;;;;
2021/04/10 00:40:01;;;;;;;14.3;10.85;;;10.3;99.9;;;;;;;;;
2021/04/10 00:40:08;;;;;;;14.3;10.85;;;10.3;99.9;;;;;;;;;
2021/04/10 00:40:13;;;;;;;14.3;10.85;;;10.3;99.9;;;;;;;;;
2021/04/10 00:40:28;;;;;;;14.3;10.85;;;10.3;99.9;;;;;;;;;
2021/04/10 00:40:39;;;;;;;14;12.05;;;10.3;99.9;;;;;;;;;
2021/04/10 00:40:54;;;;;;;14;12.05;;;10.3;99.9;;;;;;;;;
2021/04/10 00:41:02;;;;;;;14;12.05;;;10.3;99.9;;;;;;;;;
2021/04/10 00:41:04;;;;;;;14;12.05;;;10.3;99.9;;;;;;;;;
2021/04/10 00:41:15;;;;;;;14;12.05;;;10.3;99.9;;;;;;;;;
2021/04/10 00:41:30;;;;;;;14;12.05;;;10.3;99.9;;;;;;;;;
2021/04/10 00:41:40;;;;;;;12.23;10.75;;;10.3;99.9;;;;;;;;;
2021/04/10 00:41:56;;;;;;;12.23;10.75;;;10.3;99.9;;;;;;;;;
2021/04/10 00:42:01;;;;;;;12.23;10.75;;;10.3;99.9;;;;;;;;;
2021/04/10 00:42:11;;;;;;;12.23;10.75;;;10.3;99.9;;;;;;;;;
2021/04/10 00:42:16;;;;;;;12.23;10.75;;;10.3;99.9;;;;;;;;;
2021/04/10 00:42:26;;;;;;;12.23;10.75;;;10.3;99.9;;;;;;;;;
2021/04/10 00:42:42;;;;;;;13.1;11.2;;;10.3;99.9;;;;;;;;;
2021/04/10 00:42:52;;;;;;;13.1;11.2;;;10.3;99.9;;;;;;;;;
2021/04/10 00:43:02;;;;;;;13.1;11.2;;;10.3;99.9;;;;;;;;;
2021/04/10 00:43:07;;;;;;;13.1;11.2;;;10.3;99.9;;;;;;;;;
2021/04/10 00:43:12;;;;;;;13.1;11.2;;;10.3;99.9;;;;;;;;;
2021/04/10 00:43:28;;;;;;;13.1;11.2;;;10.3;99.9;;;;;;;;;
2021/04/10 00:43:43;;;;;;;15.57;11.15;;;10.3;99.9;;;;;;;;;
2021/04/10 00:43:53;;;;;;;15.57;11.15;;;10.3;99.9;;;;;;;;;
2021/04/10 00:44:02;;;;;;;15.57;11.15;;;10.3;99.9;;;;;;;;;
2021/04/10 00:44:09;;;;;;;15.57;11.15;;;10.3;99.9;;;;;;;;;
2021/04/10 00:44:14;;;;;;;15.57;11.15;;;10.3;99.9;;;;;;;;;
2021/04/10 00:44:29;;;;;;;15.57;11.15;;;10.3;99.9;;;;;;;;;
2021/04/10 00:44:39;;;;;;;13.35;11.1;;;10.3;99.9;;;;;;;;;
2021/04/10 00:44:55;;;;;;;13.35;11.1;;;10.3;99.9;;;;;;;;;
2021/04/10 00:45:02;;;;;;;13.35;11.1;;;10.3;99.9;;;;;;;;;
2021/04/10 00:45:05;;;;;;;13.35;11.1;;;10.3;99.9;;;;;;;;;
2021/04/10 00:45:15;;;;;;;13.35;11.1;;;10.3;99.9;;;;;;;;;
2021/04/10 00:45:26;;;;;;;13.35;11.1;;;10.3;99.9;;;;;;;;;
2021/04/10 00:45:41;;;;;;;12.93;11.57;;;10.3;99.9;;;;;;;;;
2021/04/10 00:45:56;;;;;;;12.93;11.57;;;10.3;99.9;;;;;;;;;
2021/04/10 00:46:02;;;;;;;12.93;11.57;;;10.3;99.9;;;;;;;;;
2021/04/10 00:46:07;;;;;;;12.93;11.57;;;10.3;99.9;;;;;;;;;
2021/04/10 00:46:17;;;;;;;12.93;11.57;;;10.3;99.9;;;;;;;;;
2021/04/10 00:46:27;;;;;;;12.93;11.57;;;10.3;99.9;;;;;;;;;
2021/04/10 00:46:42;;;;;;;14.6;11.65;;;10.3;99.9;;;;;;;;;
2021/04/10 00:46:53;;;;;;;14.6;11.65;;;10.3;99.9;;;;;;;;;
2021/04/10 00:47:01;;;;;;;14.6;11.65;;;10.3;99.9;;;;;;;;;
2021/04/10 00:47:08;;;;;;;14.6;11.65;;;10.3;99.9;;;;;;;;;
2021/04/10 00:47:13;;;;;;;14.6;11.65;;;10.3;99.9;;;;;;;;;
2021/04/10 00:47:28;;;;;;;14.6;11.65;;;10.3;99.9;;;;;;;;;
2021/04/10 00:47:39;;;;;;;14.15;12.55;;;10.2;99.9;;;;;;;;;
2021/04/10 00:47:54;;;;;;;14.15;12.55;;;10.2;99.9;;;;;;;;;
2021/04/10 00:48:02;;;;;;;14.15;12.55;;;10.2;99.9;;;;;;;;;
2021/04/10 00:48:09;;;;;;;14.15;12.55;;;10.2;99.9;;;;;;;;;
2021/04/10 00:48:14;;;;;;;14.15;12.55;;;10.2;99.9;;;;;;;;;
2021/04/10 00:48:30;;;;;;;14.15;12.55;;;10.2;99.9;;;;;;;;;
2021/04/10 00:48:40;;;;;;;13.18;11.3;;;10.2;99.9;;;;;;;;;
2021/04/10 00:48:55;;;;;;;13.18;11.3;;;10.2;99.9;;;;;;;;;
2021/04/10 00:49:02;;;;;;;13.18;11.3;;;10.2;99.9;;;;;;;;;
2021/04/10 00:49:06;;;;;;;13.18;11.3;;;10.2;99.9;;;;;;;;;
2021/04/10 00:49:16;;;;;;;13.18;11.3;;;10.2;99.9;;;;;;;;;
2021/04/10 00:49:26;;;;;;;13.18;11.3;;;10.2;99.9;;;;;;;;;
2021/04/10 00:49:41;;;;;;;16.23;11.98;;;10.2;99.9;;;;;;;;;
2021/04/10 00:49:52;;;;;;;16.23;11.98;;;10.2;99.9;;;;;;;;;
2021/04/10 00:50:02;;;;;;;16.23;11.98;;;10.2;99.9;;;;;;;;;
2021/04/10 00:50:07;;;;;;;16.23;11.98;;;10.2;99.9;;;;;;;;;
2021/04/10 00:50:14;;;;;;;16.23;11.98;;;10.2;99.9;;;;;;;;;
2021/04/10 00:50:28;;;;;;;16.23;11.98;;;10.2;99.9;;;;;;;;;
2021/04/10 00:50:43;;;;;;;14.35;11.93;;;10.2;99.9;;;;;;;;;
2021/04/10 00:50:53;;;;;;;14.35;11.93;;;10.2;99.9;;;;;;;;;
2021/04/10 00:51:02;;;;;;;14.35;11.93;;;10.2;99.9;;;;;;;;;
2021/04/10 00:51:08;;;;;;;14.35;11.93;;;10.2;99.9;;;;;;;;;
2021/04/10 00:51:14;;;;;;;14.35;11.93;;;10.2;99.9;;;;;;;;;
2021/04/10 00:51:29;;;;;;;14.35;11.93;;;10.2;99.9;;;;;;;;;
2021/04/10 00:51:39;;;;;;;14.7;11.95;;;10.2;99.9;;;;;;;;;
2021/04/10 00:51:55;;;;;;;14.7;11.95;;;10.2;99.9;;;;;;;;;
2021/04/10 00:52:01;;;;;;;14.7;11.95;;;10.2;99.9;;;;;;;;;
2021/04/10 00:52:05;;;;;;;14.7;11.95;;;10.2;99.9;;;;;;;;;
2021/04/10 00:52:15;;;;;;;14.7;11.95;;;10.2;99.9;;;;;;;;;
2021/04/10 00:52:25;;;;;;;14.7;11.95;;;10.2;99.9;;;;;;;;;
2021/04/10 00:52:41;;;;;;;12.25;10.75;;;10.2;99.9;;;;;;;;;
2021/04/10 00:52:56;;;;;;;12.25;10.75;;;10.2;99.9;;;;;;;;;
2021/04/10 00:53:02;;;;;;;12.25;10.75;;;10.2;99.9;;;;;;;;;
2021/04/10 00:53:07;;;;;;;12.25;10.75;;;10.2;99.9;;;;;;;;;
2021/04/10 00:53:16;;;;;;;12.25;10.75;;;10.2;99.9;;;;;;;;;
2021/04/10 00:53:27;;;;;;;12.25;10.75;;;10.2;99.9;;;;;;;;;
2021/04/10 00:53:42;;;;;;;14.43;10.82;;;10.1;99.9;;;;;;;;;
2021/04/10 00:53:53;;;;;;;14.43;10.82;;;10.1;99.9;;;;;;;;;
2021/04/10 00:54:02;;;;;;;14.43;10.82;;;10.1;99.9;;;;;;;;;
2021/04/10 00:54:08;;;;;;;14.43;10.82;;;10.1;99.9;;;;;;;;;
2021/04/10 00:54:13;;;;;;;14.43;10.82;;;10.1;99.9;;;;;;;;;
2021/04/10 00:54:28;;;;;;;14.43;10.82;;;10.1;99.9;;;;;;;;;
2021/04/10 00:54:38;;;;;;;13.1;11.13;;;10;99.9;;;;;;;;;
2021/04/10 00:54:54;;;;;;;13.1;11.13;;;10;99.9;;;;;;;;;
2021/04/10 00:55:02;;;;;;;13.1;11.13;;;10;99.9;;;;;;;;;
2021/04/10 00:55:09;;;;;;;13.1;11.13;;;10;99.9;;;;;;;;;
2021/04/10 00:55:14;;;;;;;13.1;11.13;;;10;99.9;;;;;;;;;
2021/04/10 00:55:30;;;;;;;13.1;11.13;;;10;99.9;;;;;;;;;
2021/04/10 00:55:40;;;;;;;14.9;12.17;;;9.9;99.9;;;;;;;;;
2021/04/10 00:55:55;;;;;;;14.9;12.17;;;9.9;99.9;;;;;;;;;
2021/04/10 00:56:02;;;;;;;14.9;12.17;;;9.9;99.9;;;;;;;;;
2021/04/10 00:56:06;;;;;;;14.9;12.17;;;9.9;99.9;;;;;;;;;
2021/04/10 00:56:16;;;;;;;14.9;12.17;;;9.9;99.9;;;;;;;;;
2021/04/10 00:56:26;;;;;;;14.9;12.17;;;9.9;99.9;;;;;;;;;
2021/04/10 00:56:41;;;;;;;13.25;11.3;;;9.9;99.9;;;;;;;;;
2021/04/10 00:56:52;;;;;;;13.25;11.3;;;9.9;99.9;;;;;;;;;
2021/04/10 00:57:01;;;;;;;13.25;11.3;;;9.9;99.9;;;;;;;;;
2021/04/10 00:57:08;;;;;;;13.25;11.3;;;9.9;99.9;;;;;;;;;
2021/04/10 00:57:17;;;;;;;13.25;11.3;;;9.9;99.9;;;;;;;;;
2021/04/10 00:57:27;;;;;;;13.25;11.3;;;9.9;99.9;;;;;;;;;
2021/04/10 00:57:43;;;;;;;14.63;11.52;;;9.9;99.9;;;;;;;;;
2021/04/10 00:57:53;;;;;;;14.63;11.52;;;9.9;99.9;;;;;;;;;
2021/04/10 00:58:02;;;;;;;14.63;11.52;;;9.9;99.9;;;;;;;;;
2021/04/10 00:58:08;;;;;;;14.63;11.52;;;9.9;99.9;;;;;;;;;
2021/04/10 00:58:13;;;;;;;14.63;11.52;;;9.9;99.9;;;;;;;;;
2021/04/10 00:58:29;;;;;;;14.63;11.52;;;9.9;99.9;;;;;;;;;
2021/04/10 00:58:39;;;;;;;12.98;11.68;;;9.7;99.9;;;;;;;;;
2021/04/10 00:58:55;;;;;;;12.98;11.68;;;9.7;99.9;;;;;;;;;
2021/04/10 00:59:02;;;;;;;12.98;11.68;;;9.7;99.9;;;;;;;;;
2021/04/10 00:59:05;;;;;;;12.98;11.68;;;9.7;99.9;;;;;;;;;
2021/04/10 00:59:15;;;;;;;12.98;11.68;;;9.7;99.9;;;;;;;;;
2021/04/10 00:59:30;;;;;;;12.98;11.68;;;9.7;99.9;;;;;;;;;
2021/04/10 00:59:40;;;;;;;14.53;11.67;;;9.7;99.9;;;;;;;;;
2021/04/10 00:59:56;;;;;;;14.53;11.67;;;9.7;99.9;;;;;;;;;
2021/04/10 01:00:02;;;;;;;14.53;11.67;;;9.7;99.9;;;;;;;;;
2021/04/10 01:00:06;;;;;;;14.53;11.67;;;9.7;99.9;;;;;;;;;
2021/04/10 01:00:16;;;;;;;14.53;11.67;;;9.7;99.9;;;;;;;;;
2021/04/10 01:00:27;;;;;;;14.53;11.67;;;9.7;99.9;;;;;;;;;
2021/04/10 01:00:42;;;;;;;13.55;11.88;;;9.8;99.9;;;;;;;;;
2021/04/10 01:00:52;;;;;;;13.55;11.88;;;9.8;99.9;;;;;;;;;
2021/04/10 01:01:02;;;;;;;13.55;11.88;;;9.8;99.9;;;;;;;;;
2021/04/10 01:01:08;;;;;;;13.55;11.88;;;9.8;99.9;;;;;;;;;
2021/04/10 01:01:13;;;;;;;13.55;11.88;;;9.8;99.9;;;;;;;;;
2021/04/10 01:01:28;;;;;;;13.55;11.88;;;9.8;99.9;;;;;;;;;
2021/04/10 01:01:43;;;;;;;14.57;11.77;;;9.8;99.9;;;;;;;;;
2021/04/10 01:01:54;;;;;;;14.57;11.77;;;9.8;99.9;;;;;;;;;
2021/04/10 01:02:01;;;;;;;14.57;11.77;;;9.8;99.9;;;;;;;;;
2021/04/10 01:02:09;;;;;;;14.57;11.77;;;9.8;99.9;;;;;;;;;
2021/04/10 01:02:14;;;;;;;14.57;11.77;;;9.8;99.9;;;;;;;;;
2021/04/10 01:02:29;;;;;;;14.57;11.77;;;9.8;99.9;;;;;;;;;
2021/04/10 01:02:40;;;;;;;14.23;11.97;;;9.8;99.9;;;;;;;;;
2021/04/10 01:02:55;;;;;;;14.23;11.97;;;9.8;99.9;;;;;;;;;
2021/04/10 01:03:02;;;;;;;14.23;11.97;;;9.8;99.9;;;;;;;;;
2021/04/10 01:03:05;;;;;;;14.23;11.97;;;9.8;99.9;;;;;;;;;
2021/04/10 01:03:16;;;;;;;14.23;11.97;;;9.8;99.9;;;;;;;;;
2021/04/10 01:03:26;;;;;;;14.23;11.97;;;9.8;99.9;;;;;;;;;
2021/04/10 01:03:41;;;;;;;16.6;12.57;;;9.8;99.9;;;;;;;;;
2021/04/10 01:03:57;;;;;;;16.6;12.57;;;9.8;99.9;;;;;;;;;
2021/04/10 01:04:02;;;;;;;16.6;12.57;;;9.8;99.9;;;;;;;;;
2021/04/10 01:04:07;;;;;;;16.6;12.57;;;9.8;99.9;;;;;;;;;
2021/04/10 01:04:12;;;;;;;16.6;12.57;;;9.8;99.9;;;;;;;;;
2021/04/10 01:04:27;;;;;;;16.6;12.57;;;9.8;99.9;;;;;;;;;
2021/04/10 01:04:43;;;;;;;16.87;12.1;;;9.8;99.9;;;;;;;;;
2021/04/10 01:04:53;;;;;;;16.87;12.1;;;9.8;99.9;;;;;;;;;
2021/04/10 01:05:02;;;;;;;16.87;12.1;;;9.8;99.9;;;;;;;;;
2021/04/10 01:05:08;;;;;;;16.87;12.1;;;9.8;99.9;;;;;;;;;
2021/04/10 01:05:13;;;;;;;16.87;12.1;;;9.8;99.9;;;;;;;;;
2021/04/10 01:05:29;;;;;;;16.87;12.1;;;9.8;99.9;;;;;;;;;
2021/04/10 01:05:42;;;;;;;14.82;12.13;;;9.8;99.9;;;;;;;;;
2021/04/10 01:05:54;;;;;;;14.82;12.13;;;9.8;99.9;;;;;;;;;
2021/04/10 01:06:02;;;;;;;14.82;12.13;;;9.8;99.9;;;;;;;;;
2021/04/10 01:06:10;;;;;;;14.82;12.13;;;9.8;99.9;;;;;;;;;
2021/04/10 01:06:15;;;;;;;14.82;12.13;;;9.8;99.9;;;;;;;;;
2021/04/10 01:06:25;;;;;;;14.82;12.13;;;9.8;99.9;;;;;;;;;
2021/04/10 01:06:40;;;;;;;14.57;12.15;;;9.8;99.9;;;;;;;;;
2021/04/10 01:06:56;;;;;;;14.57;12.15;;;9.8;99.9;;;;;;;;;
2021/04/10 01:07:01;;;;;;;14.57;12.15;;;9.8;99.9;;;;;;;;;
2021/04/10 01:07:06;;;;;;;14.57;12.15;;;9.8;99.9;;;;;;;;;
2021/04/10 01:07:16;;;;;;;14.57;12.15;;;9.8;99.9;;;;;;;;;
2021/04/10 01:07:26;;;;;;;14.57;12.15;;;9.8;99.9;;;;;;;;;
2021/04/10 01:07:42;;;;;;;20.63;13.77;;;9.8;99.9;;;;;;;;;
2021/04/10 01:07:57;;;;;;;20.63;13.77;;;9.8;99.9;;;;;;;;;
2021/04/10 01:08:02;;;;;;;20.63;13.77;;;9.8;99.9;;;;;;;;;
2021/04/10 01:08:07;;;;;;;20.63;13.77;;;9.8;99.9;;;;;;;;;
2021/04/10 01:08:13;;;;;;;20.63;13.77;;;9.8;99.9;;;;;;;;;
2021/04/10 01:08:28;;;;;;;20.63;13.77;;;9.8;99.9;;;;;;;;;
2021/04/10 01:08:38;;;;;;;20.63;13.77;;;9.8;99.9;;;;;;;;;
2021/04/10 01:08:53;;;;;;;16.47;12.4;;;9.8;99.9;;;;;;;;;
2021/04/10 01:09:01;;;;;;;16.47;12.4;;;9.8;99.9;;;;;;;;;
2021/04/10 01:09:09;;;;;;;16.47;12.4;;;9.8;99.9;;;;;;;;;
2021/04/10 01:09:14;;;;;;;16.47;12.4;;;9.8;99.9;;;;;;;;;
2021/04/10 01:09:29;;;;;;;16.47;12.4;;;9.8;99.9;;;;;;;;;
2021/04/10 01:09:40;;;;;;;16.47;12.4;;;9.8;99.9;;;;;;;;;
2021/04/10 01:09:55;;;;;;;15.3;12.63;;;9.8;99.9;;;;;;;;;
2021/04/10 01:10:02;;;;;;;15.3;12.63;;;9.8;99.9;;;;;;;;;
2021/04/10 01:10:10;;;;;;;15.3;12.63;;;9.8;99.9;;;;;;;;;
2021/04/10 01:10:15;;;;;;;15.3;12.63;;;9.8;99.9;;;;;;;;;
2021/04/10 01:10:26;;;;;;;15.3;12.63;;;9.8;99.9;;;;;;;;;
2021/04/10 01:10:41;;;;;;;14.97;12.3;;;9.7;99.9;;;;;;;;;
2021/04/10 01:10:51;;;;;;;14.97;12.3;;;9.7;99.9;;;;;;;;;
2021/04/10 01:11:02;;;;;;;14.97;12.3;;;9.7;99.9;;;;;;;;;
2021/04/10 01:11:07;;;;;;;14.97;12.3;;;9.7;99.9;;;;;;;;;
2021/04/10 01:11:12;;;;;;;14.97;12.3;;;9.7;99.9;;;;;;;;;
2021/04/10 01:11:27;;;;;;;14.97;12.3;;;9.7;99.9;;;;;;;;;
2021/04/10 01:11:42;;;;;;;14.88;12.6;;;9.7;99.9;;;;;;;;;
2021/04/10 01:11:53;;;;;;;14.88;12.6;;;9.7;99.9;;;;;;;;;
2021/04/10 01:12:01;;;;;;;14.88;12.6;;;9.7;99.9;;;;;;;;;
2021/04/10 01:12:08;;;;;;;14.88;12.6;;;9.7;99.9;;;;;;;;;
2021/04/10 01:12:13;;;;;;;14.88;12.6;;;9.7;99.9;;;;;;;;;
2021/04/10 01:12:29;;;;;;;14.88;12.6;;;9.7;99.9;;;;;;;;;
2021/04/10 01:12:39;;;;;;;14.88;12.6;;;9.7;99.9;;;;;;;;;
2021/04/10 01:12:54;;;;;;;14.38;12.15;;;9.8;99.9;;;;;;;;;
2021/04/10 01:13:02;;;;;;;14.38;12.15;;;9.8;99.9;;;;;;;;;
2021/04/10 01:13:04;;;;;;;14.38;12.15;;;9.8;99.9;;;;;;;;;
2021/04/10 01:13:20;;;;;;;14.38;12.15;;;9.8;99.9;;;;;;;;;
2021/04/10 01:13:40;;;;;;;14.38;12.15;;;9.8;99.9;;;;;;;;;
2021/04/10 01:13:45;;;;;;;15.68;12.73;;;9.8;99.9;;;;;;;;;
2021/04/10 01:14:01;;;;;;;15.68;12.73;;;9.8;99.9;;;;;;;;;
2021/04/10 01:14:01;;;;;;;15.68;12.73;;;9.8;99.9;;;;;;;;;
2021/04/10 01:14:16;;;;;;;15.68;12.73;;;9.8;99.9;;;;;;;;;